Time;durP1;ratioP1;P1;durP2;ratioP2;P2;SDS_P1;SDS_P2;PMS_P1;PMS_P2;Temp;Humidity;BMP_temperature;BMP_pressure;BME280_temperature;BME280_humidity;BME280_pressure;Samples;Min_cycle;Max_cycle;Signal;HPM_P1;HPM_P2
2024/02/19 00:02:10;;;;;;;5.82;3.58;;;;;;;9.49;55.51;102090.53;4997023;28;20131;-75
2024/02/19 00:04:38;;;;;;;5.88;3.05;;;;;;;9.49;55.39;102093.25;4998278;28;20117;-75
2024/02/19 00:07:07;;;;;;;4.63;2.80;;;;;;;9.49;54.85;102093.25;4980472;28;20794;-75
2024/02/19 00:09:35;;;;;;;5.40;2.78;;;;;;;9.47;55.07;102104.28;4982766;28;20456;-75
2024/02/19 00:12:06;;;;;;;6.45;3.22;;;;;;;9.48;55.50;102099.69;4993603;28;20073;-75
2024/02/19 00:14:34;;;;;;;6.60;3.03;;;;;;;9.46;55.16;102092.47;4996402;28;20080;-75
2024/02/19 00:17:02;;;;;;;6.63;2.90;;;;;;;9.47;55.36;102112.50;4980623;28;20129;-75
2024/02/19 00:19:31;;;;;;;6.82;2.92;;;;;;;9.45;55.15;102106.22;4980622;28;20081;-75
2024/02/19 00:22:00;;;;;;;4.50;2.80;;;;;;;9.47;55.40;102117.94;4983267;28;20521;-75
2024/02/19 00:24:30;;;;;;;4.25;2.50;;;;;;;9.45;55.15;102123.50;4996502;28;20088;-75
2024/02/19 00:26:58;;;;;;;4.60;2.22;;;;;;;9.43;55.01;102121.84;4998597;28;20050;-75
2024/02/19 00:29:26;;;;;;;4.82;2.42;;;;;;;9.43;54.89;102133.66;4980197;28;20812;-75
2024/02/19 00:31:54;;;;;;;4.70;2.40;;;;;;;9.42;54.88;102133.75;4982834;28;20145;-75
2024/02/19 00:34:22;;;;;;;5.00;3.15;;;;;;;9.41;55.04;102129.28;5002745;28;20052;-75
2024/02/19 00:36:50;;;;;;;4.78;2.60;;;;;;;9.40;54.96;102131.13;4987819;28;20042;-74
2024/02/19 00:39:18;;;;;;;5.65;2.35;;;;;;;9.41;55.64;102126.53;5001845;28;20060;-75
2024/02/19 00:41:48;;;;;;;5.07;2.78;;;;;;;9.41;55.63;102129.28;4998636;28;20050;-75
2024/02/19 00:44:16;;;;;;;5.03;2.40;;;;;;;9.38;55.43;102124.88;4976406;28;20391;-75
2024/02/19 00:46:44;;;;;;;5.68;2.78;;;;;;;9.37;55.62;102131.28;4986331;28;20084;-75
2024/02/19 00:49:12;;;;;;;4.35;2.45;;;;;;;9.38;55.26;102134.88;4998604;28;20097;-75
2024/02/19 00:51:40;;;;;;;7.18;2.53;;;;;;;9.38;55.03;102129.41;4985827;28;20156;-75
2024/02/19 00:54:08;;;;;;;5.93;2.67;;;;;;;9.36;55.53;102137.72;4981811;28;20053;-75
2024/02/19 00:56:37;;;;;;;6.00;2.50;;;;;;;9.37;55.56;102133.13;5074301;22;20172;-75
2024/02/19 00:59:07;;;;;;;5.82;2.35;;;;;;;9.37;55.36;102135.84;5001504;28;20073;-76
2024/02/19 01:01:35;;;;;;;6.40;2.75;;;;;;;9.35;55.20;102135.06;5006809;28;20120;-76
2024/02/19 01:04:03;;;;;;;6.15;2.40;;;;;;;9.36;54.82;102136.81;5012547;28;20041;-75
2024/02/19 01:06:31;;;;;;;10.82;3.00;;;;;;;9.34;54.86;102136.03;5021099;28;20103;-75
2024/02/19 01:08:58;;;;;;;5.93;2.80;;;;;;;9.33;55.01;102134.31;5005129;28;20049;-75
2024/02/19 01:11:28;;;;;;;6.35;2.47;;;;;;;9.32;55.38;102147.09;5023176;28;20115;-75
2024/02/19 01:13:56;;;;;;;7.95;2.50;;;;;;;9.31;54.88;102141.72;5006197;28;20053;-76
2024/02/19 01:16:25;;;;;;;6.35;2.78;;;;;;;9.32;54.77;102148.94;5024335;28;20124;-75
2024/02/19 01:18:53;;;;;;;6.47;2.20;;;;;;;9.30;55.24;102153.59;5008364;28;20429;-76
2024/02/19 01:21:22;;;;;;;5.53;2.15;;;;;;;9.28;54.75;102147.34;5021195;28;20037;-75
2024/02/19 01:23:50;;;;;;;7.18;2.50;;;;;;;9.27;54.70;102154.66;5026363;28;20132;-74
2024/02/19 01:26:20;;;;;;;7.47;2.10;;;;;;;9.26;54.60;102147.44;5005146;28;20045;-75
2024/02/19 01:28:48;;;;;;;6.55;2.40;;;;;;;9.25;54.89;102162.06;5026013;28;20045;-76
2024/02/19 01:31:16;;;;;;;6.28;2.20;;;;;;;9.24;54.44;102159.47;5024706;28;20145;-75
2024/02/19 01:33:46;;;;;;;6.22;2.17;;;;;;;9.25;54.50;102173.00;5009007;28;20045;-76
2024/02/19 01:36:14;;;;;;;6.63;2.72;;;;;;;9.23;54.66;102177.69;5022405;28;20053;-76
2024/02/19 01:38:42;;;;;;;4.90;1.88;;;;;;;9.22;54.66;102172.31;5025289;28;20048;-76
2024/02/19 01:41:10;;;;;;;8.35;1.83;;;;;;;9.22;54.59;102172.31;5029876;28;20055;-75
2024/02/19 01:43:38;;;;;;;6.28;2.20;;;;;;;9.21;54.40;102179.63;5012588;28;20124;-75
2024/02/19 01:46:06;;;;;;;5.00;2.00;;;;;;;9.20;54.19;102177.88;5029804;28;20532;-76
2024/02/19 01:48:34;;;;;;;6.10;1.83;;;;;;;9.19;54.03;102176.13;5029462;28;20125;-75
2024/02/19 01:51:04;;;;;;;6.32;2.22;;;;;;;9.21;54.45;102179.63;5026835;28;20045;-74
2024/02/19 01:53:32;;;;;;;6.65;1.80;;;;;;;9.20;54.21;102182.47;5032104;28;20091;-75
2024/02/19 01:56:00;;;;;;;5.90;1.77;;;;;;;9.19;53.99;102189.78;5026277;28;20091;-76
2024/02/19 01:58:29;;;;;;;4.97;1.60;;;;;;;9.20;54.50;102191.53;5026617;28;20046;-75
2024/02/19 02:00:58;;;;;;;6.50;2.08;;;;;;;9.20;54.25;102185.19;5003458;28;20129;-75
2024/02/19 02:03:29;;;;;;;6.70;1.88;;;;;;;9.20;54.13;102188.81;5022981;28;20099;-75
2024/02/19 02:05:58;;;;;;;7.03;1.95;;;;;;;9.19;54.29;102194.34;5008673;28;20084;-75
2024/02/19 02:08:27;;;;;;;5.30;1.83;;;;;;;9.22;54.32;102191.44;5027052;28;20412;-76
2024/02/19 02:10:55;;;;;;;5.93;2.00;;;;;;;9.20;54.35;102194.25;5025714;28;20037;-75
2024/02/19 02:13:23;;;;;;;7.00;2.35;;;;;;;9.21;53.83;102197.88;5028520;28;20041;-75
2024/02/19 02:15:51;;;;;;;6.60;2.10;;;;;;;9.20;54.19;102191.53;5025845;28;20100;-74
2024/02/19 02:18:19;;;;;;;6.03;2.10;;;;;;;9.20;54.19;102198.84;5007376;28;20122;-76
2024/02/19 02:20:48;;;;;;;5.03;1.98;;;;;;;9.21;54.00;102201.50;5026212;28;20057;-74
2024/02/19 02:23:16;;;;;;;5.95;2.20;;;;;;;9.20;54.19;102202.47;5027258;28;20043;-75
2024/02/19 02:25:45;;;;;;;6.10;1.90;;;;;;;9.22;54.06;102205.09;5030027;28;20048;-75
2024/02/19 02:28:15;;;;;;;7.65;2.33;;;;;;;9.21;53.88;102200.59;5018979;28;20128;-73
2024/02/19 02:30:43;;;;;;;6.25;2.28;;;;;;;9.19;53.95;102200.69;5029728;28;20388;-75
2024/02/19 02:33:11;;;;;;;5.85;1.88;;;;;;;9.20;54.27;102204.31;5028039;28;20048;-76
2024/02/19 02:35:39;;;;;;;4.93;1.80;;;;;;;9.20;54.22;102201.56;5026374;28;20046;-75
2024/02/19 02:38:07;;;;;;;7.25;2.13;;;;;;;9.19;53.77;102197.97;5028625;28;20065;-74
2024/02/19 02:40:35;;;;;;;8.52;2.50;;;;;;;9.21;53.63;102200.59;5028016;28;20049;-76
2024/02/19 02:43:03;;;;;;;6.13;2.15;;;;;;;9.20;54.07;102201.56;5026603;28;20590;-76
2024/02/19 02:45:33;;;;;;;5.97;2.20;;;;;;;9.22;53.58;102218.75;5011985;28;20152;-76
2024/02/19 02:48:00;;;;;;;5.95;1.92;;;;;;;9.19;53.66;102216.19;5027141;28;20051;-74
2024/02/19 02:50:28;;;;;;;7.22;2.20;;;;;;;9.19;53.77;102222.53;5002035;28;20137;-75
2024/02/19 02:52:56;;;;;;;6.32;2.00;;;;;;;9.19;53.99;102227.13;5032638;28;20515;-75
2024/02/19 02:55:24;;;;;;;7.57;1.98;;;;;;;9.18;53.82;102226.25;5024327;28;20216;-76
2024/02/19 02:57:52;;;;;;;6.78;2.17;;;;;;;9.19;53.40;102236.22;5025975;28;20037;-76
2024/02/19 03:00:21;;;;;;;6.82;1.85;;;;;;;9.19;53.60;102233.47;5015286;28;20068;-75
2024/02/19 03:02:51;;;;;;;6.93;1.70;;;;;;;9.18;53.85;102225.38;5027147;28;20136;-75
2024/02/19 03:05:19;;;;;;;4.90;1.90;;;;;;;9.17;53.34;102226.34;5007050;28;20059;-76
2024/02/19 03:07:47;;;;;;;5.05;1.75;;;;;;;9.15;53.76;102233.75;5028053;28;20437;-76
2024/02/19 03:10:15;;;;;;;7.50;2.05;;;;;;;9.14;53.63;102221.97;5026282;28;20455;-76
2024/02/19 03:12:43;;;;;;;7.05;2.03;;;;;;;9.12;53.62;102221.16;5014480;28;20049;-75
2024/02/19 03:15:11;;;;;;;5.40;1.75;;;;;;;9.12;53.46;102232.09;5028979;28;20048;-76
2024/02/19 03:17:39;;;;;;;5.72;1.45;;;;;;;9.12;53.49;102221.16;5022580;28;20642;-75
2024/02/19 03:20:13;;;;;;;7.35;1.80;;;;;;;9.12;53.63;102234.81;5009158;28;20049;-75
2024/02/19 03:22:42;;;;;;;4.57;1.50;;;;;;;9.12;53.63;102242.13;5006382;28;20056;-75
2024/02/19 03:25:10;;;;;;;4.88;1.92;;;;;;;9.10;53.29;102240.38;5005459;28;20115;-75
2024/02/19 03:27:39;;;;;;;6.50;1.58;;;;;;;9.10;53.47;102239.47;5025055;28;20531;-75
2024/02/19 03:30:09;;;;;;;6.78;1.70;;;;;;;9.11;53.58;102243.97;5026281;28;20050;-75
2024/02/19 03:32:37;;;;;;;7.63;1.98;;;;;;;9.10;53.30;102245.81;5025746;28;20120;-76
2024/02/19 03:35:06;;;;;;;7.28;1.77;;;;;;;9.12;53.74;102245.75;5025556;28;20046;-75
2024/02/19 03:37:35;;;;;;;7.25;1.60;;;;;;;9.13;53.62;102252.97;5026848;28;20045;-75
2024/02/19 03:40:06;;;;;;;5.97;1.50;;;;;;;9.13;53.38;102246.63;5027536;28;20046;-75
2024/02/19 03:42:34;;;;;;;7.97;1.55;;;;;;;9.12;53.70;102253.06;5005599;28;20056;-75
2024/02/19 03:45:03;;;;;;;5.25;1.92;;;;;;;9.12;53.21;102253.94;5014478;28;20045;-76
2024/02/19 03:47:31;;;;;;;5.85;1.40;;;;;;;9.14;53.11;102256.59;5026436;28;20069;-75
2024/02/19 03:49:59;;;;;;;5.63;1.60;;;;;;;9.13;53.23;102242.03;5015480;28;20051;-75
2024/02/19 03:52:27;;;;;;;6.40;1.40;;;;;;;9.14;53.54;102248.38;5022729;28;20041;-75
2024/02/19 03:54:56;;;;;;;5.78;1.30;;;;;;;9.16;53.13;102249.19;5009049;28;20053;-74
2024/02/19 03:57:24;;;;;;;6.03;1.48;;;;;;;9.15;53.29;102244.69;5012124;28;20075;-76
2024/02/19 03:59:52;;;;;;;7.00;2.15;;;;;;;9.15;52.99;102244.69;5024771;28;20103;-76
2024/02/19 04:02:20;;;;;;;5.47;1.60;;;;;;;9.16;53.63;102241.00;5006165;28;20040;-76
2024/02/19 04:04:48;;;;;;;4.85;1.55;;;;;;;9.15;53.49;102242.84;5011860;28;20079;-75
2024/02/19 04:07:16;;;;;;;6.05;1.63;;;;;;;9.17;53.27;102248.19;5014018;28;20060;-75
2024/02/19 04:09:44;;;;;;;6.60;1.40;;;;;;;9.17;53.42;102248.19;5007436;28;20079;-75
2024/02/19 04:12:14;;;;;;;4.93;1.40;;;;;;;9.18;53.43;102245.38;5008752;28;20064;-76
2024/02/19 04:14:42;;;;;;;4.40;1.48;;;;;;;9.16;53.18;102249.19;5025687;28;20493;-76
2024/02/19 04:17:10;;;;;;;5.00;1.40;;;;;;;9.17;53.04;102256.38;5014126;28;20453;-75
2024/02/19 04:19:38;;;;;;;5.25;1.40;;;;;;;9.17;53.34;102260.00;5025445;28;20076;-76
2024/02/19 04:22:06;;;;;;;4.78;1.20;;;;;;;9.18;53.61;102260.88;5013317;28;20052;-75
2024/02/19 04:24:33;;;;;;;6.32;1.90;;;;;;;9.18;53.31;102259.03;5004698;28;20118;-75
2024/02/19 04:27:01;;;;;;;4.65;1.85;;;;;;;9.18;53.32;102264.50;5006617;28;20705;-75
2024/02/19 04:29:30;;;;;;;7.80;1.70;;;;;;;9.20;53.36;102254.34;5016672;28;20132;-75
2024/02/19 04:31:58;;;;;;;6.15;1.55;;;;;;;9.19;53.22;102260.78;5006930;28;20052;-75
2024/02/19 04:34:26;;;;;;;5.88;1.70;;;;;;;9.20;53.41;102264.41;5014628;28;20049;-76
2024/02/19 04:36:54;;;;;;;6.53;1.77;;;;;;;9.19;53.56;102266.25;5026472;28;20057;-75
2024/02/19 04:39:22;;;;;;;5.45;1.65;;;;;;;9.20;53.45;102267.13;5005345;28;20041;-75
2024/02/19 04:41:50;;;;;;;7.88;1.80;;;;;;;9.20;53.58;102270.75;5026831;28;20132;-75
2024/02/19 04:44:18;;;;;;;5.25;1.48;;;;;;;9.20;52.96;102278.06;5023696;28;20334;-75
2024/02/19 04:46:48;;;;;;;5.55;1.90;;;;;;;9.22;53.47;102281.59;5024977;28;20033;-74
2024/02/19 04:49:15;;;;;;;5.60;1.88;;;;;;;9.19;53.38;102276.28;5008209;28;20060;-74
2024/02/19 04:51:43;;;;;;;9.32;1.98;;;;;;;9.19;53.33;102273.56;5025642;28;20504;-74
2024/02/19 04:54:12;;;;;;;6.93;2.22;;;;;;;9.18;53.48;102269.06;5003703;28;20136;-73
2024/02/19 04:56:39;;;;;;;5.78;1.92;;;;;;;9.19;53.67;102270.84;5024043;28;20518;-74
2024/02/19 04:59:07;;;;;;;7.32;2.00;;;;;;;9.17;53.82;102265.44;5023389;28;20132;-75
2024/02/19 05:01:35;;;;;;;7.57;2.35;;;;;;;9.17;53.28;102261.84;5025087;28;20373;-75
2024/02/19 05:04:05;;;;;;;7.05;2.20;;;;;;;9.18;53.19;102269.06;5011992;28;20424;-75
2024/02/19 05:06:33;;;;;;;6.60;2.13;;;;;;;9.16;53.35;102262.84;5024591;28;20389;-75
2024/02/19 05:09:01;;;;;;;5.47;2.15;;;;;;;9.17;53.36;102268.19;5007216;28;20042;-75
2024/02/19 05:11:29;;;;;;;6.40;2.47;;;;;;;9.17;53.61;102264.56;5024348;28;20071;-74
2024/02/19 05:13:57;;;;;;;5.93;2.15;;;;;;;9.16;53.16;102261.00;5012233;28;20132;-75
2024/02/19 05:16:26;;;;;;;5.07;1.88;;;;;;;9.17;53.60;102261.84;5027614;28;20488;-74
2024/02/19 05:18:54;;;;;;;6.75;2.17;;;;;;;9.16;53.61;102263.72;5032765;28;20116;-75
2024/02/19 05:21:23;;;;;;;4.57;1.95;;;;;;;9.18;53.36;102269.94;5028700;28;20041;-75
2024/02/19 05:23:51;;;;;;;6.85;2.03;;;;;;;9.17;53.40;102264.56;5012521;28;20045;-75
2024/02/19 05:26:25;;;;;;;6.15;2.05;;;;;;;9.20;53.38;102272.59;5025342;28;20087;-74
2024/02/19 05:28:54;;;;;;;6.38;2.17;;;;;;;9.17;53.59;102276.38;5008651;28;20535;-75
2024/02/19 05:31:32;;;;;;;5.05;2.00;;;;;;;9.21;53.66;102282.56;5026839;28;20065;-75
2024/02/19 05:34:00;;;;;;;4.75;2.00;;;;;;;9.18;53.72;102286.34;5027635;28;20103;-74
2024/02/19 05:36:30;;;;;;;6.00;1.83;;;;;;;9.20;53.74;102286.25;5008867;28;20088;-75
2024/02/19 05:38:58;;;;;;;5.95;1.85;;;;;;;9.19;53.42;102279.03;5010015;28;20503;-75
2024/02/19 05:41:26;;;;;;;6.63;2.10;;;;;;;9.20;53.50;102278.06;5014588;28;20045;-75
2024/02/19 05:43:54;;;;;;;8.63;1.85;;;;;;;9.19;53.31;102279.91;5028889;28;20521;-74
2024/02/19 05:46:22;;;;;;;7.88;2.40;;;;;;;9.19;53.35;102266.25;5030400;28;20068;-75
2024/02/19 05:48:50;;;;;;;7.28;2.10;;;;;;;9.19;53.26;102268.97;5025764;28;20048;-75
2024/02/19 05:51:19;;;;;;;8.75;2.10;;;;;;;9.19;53.84;102276.28;5014765;28;20524;-75
2024/02/19 05:53:49;;;;;;;5.60;2.00;;;;;;;9.21;53.82;102275.25;5026828;28;20121;-75
2024/02/19 05:56:18;;;;;;;6.93;2.05;;;;;;;9.19;53.53;102282.63;5029568;28;20151;-74
2024/02/19 05:58:47;;;;;;;6.47;2.78;;;;;;;9.20;53.52;102275.31;5031980;28;20125;-75
2024/02/19 06:01:16;;;;;;;5.78;1.90;;;;;;;9.19;53.44;102285.38;5032154;28;20064;-75
2024/02/19 06:03:45;;;;;;;5.60;2.00;;;;;;;9.20;53.38;102287.13;5032962;28;20400;-74
2024/02/19 06:06:13;;;;;;;8.27;2.30;;;;;;;9.19;53.53;102293.56;5008701;28;20046;-75
2024/02/19 06:08:41;;;;;;;6.63;1.88;;;;;;;9.20;53.67;102286.25;5027290;28;20041;-74
2024/02/19 06:11:10;;;;;;;6.70;2.10;;;;;;;9.20;53.90;102292.59;5012709;28;20059;-73
2024/02/19 06:13:38;;;;;;;6.72;2.22;;;;;;;9.20;54.11;102302.66;5010847;28;20056;-75
2024/02/19 06:16:07;;;;;;;5.07;2.65;;;;;;;9.20;53.64;102294.44;5008374;28;20081;-75
2024/02/19 06:18:35;;;;;;;5.05;2.10;;;;;;;9.19;53.64;102300.88;5011726;28;20042;-75
2024/02/19 06:21:03;;;;;;;4.97;2.10;;;;;;;9.19;54.02;102309.97;5023268;28;20189;-75
2024/02/19 06:23:31;;;;;;;6.78;2.40;;;;;;;9.19;53.57;102307.22;5026082;28;20365;-75
2024/02/19 06:26:05;;;;;;;7.32;2.40;;;;;;;9.21;53.68;102308.03;5006183;28;20057;-75
2024/02/19 06:28:34;;;;;;;8.40;2.50;;;;;;;9.21;53.28;102312.59;5026924;28;20560;-74
2024/02/19 06:31:02;;;;;;;6.45;2.35;;;;;;;9.19;53.80;102315.41;5021818;28;20565;-74
2024/02/19 06:33:30;;;;;;;6.78;2.60;;;;;;;9.20;53.48;102313.56;5017579;28;20061;-74
2024/02/19 06:35:58;;;;;;;6.40;2.38;;;;;;;9.18;53.60;102316.38;5023732;28;20045;-74
2024/02/19 06:38:26;;;;;;;9.48;2.47;;;;;;;9.19;53.40;102311.81;5026719;28;20059;-74
2024/02/19 06:40:55;;;;;;;6.15;2.35;;;;;;;9.17;53.55;102317.34;5003583;28;20060;-74
2024/02/19 06:43:24;;;;;;;6.50;2.17;;;;;;;9.18;53.85;102315.50;5006537;28;20314;-75
2024/02/19 06:45:53;;;;;;;8.48;2.83;;;;;;;9.18;53.90;102323.69;5012970;28;20410;-74
2024/02/19 06:48:21;;;;;;;8.02;2.70;;;;;;;9.15;53.84;102315.72;5015240;28;20045;-77
2024/02/19 06:50:49;;;;;;;5.63;2.30;;;;;;;9.15;53.39;102318.44;5025199;28;20037;-77
2024/02/19 06:53:17;;;;;;;5.70;2.40;;;;;;;9.14;53.77;102309.34;5004119;28;20110;-73
2024/02/19 06:55:45;;;;;;;5.57;2.45;;;;;;;9.15;54.01;102307.50;5018495;28;20045;-74
2024/02/19 06:58:13;;;;;;;5.82;2.17;;;;;;;9.14;53.71;102314.81;5017845;28;20470;-74
2024/02/19 07:00:41;;;;;;;5.93;2.30;;;;;;;9.15;54.05;102312.97;5024875;28;20386;-73
2024/02/19 07:03:10;;;;;;;6.43;2.53;;;;;;;9.16;53.58;102315.63;5025323;28;20141;-73
2024/02/19 07:05:38;;;;;;;5.70;2.10;;;;;;;9.16;53.84;102312.88;5018345;28;20071;-74
2024/02/19 07:08:07;;;;;;;8.25;2.40;;;;;;;9.16;53.63;102317.47;5009533;28;20227;-74
2024/02/19 07:10:35;;;;;;;9.52;2.35;;;;;;;9.16;53.98;102317.47;5024683;28;20053;-70
2024/02/19 07:13:03;;;;;;;5.97;2.80;;;;;;;9.17;53.69;102316.47;5023544;28;20142;-72
2024/02/19 07:15:31;;;;;;;8.57;2.70;;;;;;;9.18;53.93;102315.50;5004054;28;20555;-74
2024/02/19 07:17:59;;;;;;;7.60;2.92;;;;;;;9.18;54.20;102312.78;5007212;28;20473;-74
2024/02/19 07:20:29;;;;;;;6.18;2.20;;;;;;;9.20;54.09;102313.56;5024712;28;20037;-73
2024/02/19 07:22:57;;;;;;;7.57;2.35;;;;;;;9.19;53.70;102318.16;5024917;28;20045;-74
2024/02/19 07:25:25;;;;;;;8.95;2.30;;;;;;;9.20;53.67;102319.03;5024532;28;20052;-73
2024/02/19 07:27:53;;;;;;;7.13;2.17;;;;;;;9.21;54.15;102320.78;5004146;28;20151;-74
2024/02/19 07:30:21;;;;;;;5.55;2.20;;;;;;;9.24;54.23;102334.28;5021221;28;20037;-74
2024/02/19 07:32:49;;;;;;;5.72;1.90;;;;;;;9.23;54.34;102321.59;5021962;28;20060;-73
2024/02/19 07:35:17;;;;;;;7.07;2.25;;;;;;;9.24;54.31;102326.09;5025202;28;20064;-75
2024/02/19 07:37:46;;;;;;;6.18;2.00;;;;;;;9.26;54.54;102321.41;5020311;28;20560;-74
2024/02/19 07:40:14;;;;;;;6.13;2.15;;;;;;;9.26;54.26;102321.41;5020645;28;20108;-73
2024/02/19 07:42:42;;;;;;;4.55;2.00;;;;;;;9.26;54.29;102319.53;5009847;28;20056;-73
2024/02/19 07:45:10;;;;;;;6.22;2.05;;;;;;;9.28;54.03;102327.66;5006554;28;20034;-74
2024/02/19 07:47:38;;;;;;;4.35;1.63;;;;;;;9.28;54.66;102331.28;5007250;28;20136;-74
2024/02/19 07:50:07;;;;;;;6.68;2.00;;;;;;;9.29;54.20;102337.63;5006967;28;20532;-73
2024/02/19 07:52:35;;;;;;;6.43;2.42;;;;;;;9.29;54.57;102337.63;5001812;28;20045;-79
2024/02/19 07:55:06;;;;;;;5.72;2.00;;;;;;;9.30;54.50;102345.72;5013571;28;20128;-74
2024/02/19 07:57:34;;;;;;;4.18;2.00;;;;;;;9.29;54.22;102343.97;5005870;28;20373;-75
2024/02/19 08:00:02;;;;;;;7.45;2.10;;;;;;;9.30;54.51;102345.72;5006184;28;20093;-74
2024/02/19 08:02:30;;;;;;;6.38;2.28;;;;;;;9.29;54.88;102338.50;5020601;28;20112;-74
2024/02/19 08:04:58;;;;;;;5.13;2.08;;;;;;;9.30;54.68;102331.19;5020261;28;20049;-74
2024/02/19 08:07:27;;;;;;;4.47;1.67;;;;;;;9.31;54.78;102325.63;5018281;28;20061;-75
2024/02/19 08:09:54;;;;;;;5.53;1.80;;;;;;;9.31;54.74;102316.56;5019544;28;20061;-75
2024/02/19 08:12:25;;;;;;;5.40;2.08;;;;;;;9.32;54.41;102321.06;5020719;28;20142;-74
2024/02/19 08:14:53;;;;;;;4.68;1.95;;;;;;;9.32;54.61;102318.31;5023047;28;20178;-76
2024/02/19 08:17:21;;;;;;;4.68;1.90;;;;;;;9.32;54.61;102316.47;5002253;28;20424;-76
2024/02/19 08:19:48;;;;;;;5.10;1.92;;;;;;;9.32;54.40;102313.75;5019535;28;20557;-76
2024/02/19 08:22:16;;;;;;;4.78;2.00;;;;;;;9.32;54.59;102321.94;5018839;28;20046;-75
2024/02/19 08:24:44;;;;;;;4.32;2.20;;;;;;;9.34;54.80;102322.69;5020884;28;20041;-75
2024/02/19 08:27:12;;;;;;;5.15;1.80;;;;;;;9.35;54.74;102313.53;5019711;28;20102;-76
2024/02/19 08:29:41;;;;;;;5.55;2.58;;;;;;;9.37;54.76;102317.06;5029720;28;20052;-75
2024/02/19 08:32:09;;;;;;;5.20;1.75;;;;;;;9.37;54.72;102313.47;5005493;28;20402;-75
2024/02/19 08:34:37;;;;;;;5.30;1.88;;;;;;;9.37;54.35;102314.34;5020972;28;20057;-75
2024/02/19 08:37:05;;;;;;;5.68;1.92;;;;;;;9.38;54.84;102313.41;5015891;28;20111;-76
2024/02/19 08:39:34;;;;;;;5.93;1.88;;;;;;;9.39;54.91;102311.56;5021861;28;20164;-76
2024/02/19 08:42:02;;;;;;;6.45;2.20;;;;;;;9.40;54.38;102319.66;5008157;28;20045;-76
2024/02/19 08:44:29;;;;;;;5.43;2.28;;;;;;;9.41;54.80;102315.09;5004564;28;20547;-76
2024/02/19 08:47:05;;;;;;;7.45;2.10;;;;;;;9.43;54.38;102316.72;5014773;28;20068;-76
2024/02/19 08:49:33;;;;;;;6.15;1.92;;;;;;;9.42;54.23;102314.97;5005908;28;20045;-76
2024/02/19 08:52:01;;;;;;;5.30;2.35;;;;;;;9.44;54.16;102321.22;5029456;28;20346;-74
2024/02/19 08:54:29;;;;;;;5.65;2.25;;;;;;;9.45;54.77;102313.91;5026805;28;20124;-75
2024/02/19 08:56:57;;;;;;;6.30;2.25;;;;;;;9.45;54.46;102309.31;5023919;28;20298;-76
2024/02/19 08:59:26;;;;;;;5.93;2.05;;;;;;;9.47;54.52;102311.97;5016232;28;20103;-79
2024/02/19 09:01:54;;;;;;;4.35;2.38;;;;;;;9.47;54.29;102314.72;5025237;28;20049;-75
2024/02/19 09:04:24;;;;;;;6.53;2.15;;;;;;;9.49;54.34;102320.09;5014930;28;20505;-75
2024/02/19 09:06:52;;;;;;;5.80;2.40;;;;;;;9.49;54.29;102320.09;5007607;28;20041;-76
2024/02/19 09:09:21;;;;;;;6.97;2.70;;;;;;;9.48;54.44;102319.22;5008310;28;20068;-75
2024/02/19 09:11:49;;;;;;;9.32;3.10;;;;;;;9.49;54.33;102320.97;5018622;28;20123;-75
2024/02/19 09:14:17;;;;;;;5.65;2.53;;;;;;;9.50;54.47;102314.50;5008082;28;20144;-76
2024/02/19 09:16:44;;;;;;;8.00;2.80;;;;;;;9.50;54.45;102311.78;5010880;28;20160;-77
2024/02/19 09:19:14;;;;;;;6.68;2.92;;;;;;;9.52;54.59;102300.75;5010922;28;20331;-77
2024/02/19 09:21:44;;;;;;;6.75;2.80;;;;;;;9.53;54.46;102294.31;5009591;28;20136;-76
2024/02/19 09:24:12;;;;;;;6.72;2.30;;;;;;;9.52;54.32;102290.69;5012229;28;20056;-76
2024/02/19 09:26:41;;;;;;;6.15;2.70;;;;;;;9.55;54.52;102284.19;5027036;28;20095;-77
2024/02/19 09:29:09;;;;;;;7.80;2.75;;;;;;;9.57;54.66;102284.97;5011857;28;20468;-77
2024/02/19 09:31:37;;;;;;;9.88;2.85;;;;;;;9.57;54.70;102283.13;5021315;28;20076;-77
2024/02/19 09:34:05;;;;;;;7.00;3.03;;;;;;;9.59;54.82;102283.00;5030240;28;20394;-77
2024/02/19 09:36:33;;;;;;;6.78;2.88;;;;;;;9.63;54.88;102287.31;5011379;28;20042;-77
2024/02/19 09:39:03;;;;;;;6.40;2.60;;;;;;;9.65;54.63;102286.28;5029169;28;20136;-77
2024/02/19 09:41:31;;;;;;;6.30;3.03;;;;;;;9.66;54.77;102290.72;5022508;28;20038;-77
2024/02/19 09:43:59;;;;;;;7.15;2.75;;;;;;;9.68;54.97;102275.13;5028001;28;20574;-77
2024/02/19 09:46:27;;;;;;;8.32;2.90;;;;;;;9.71;54.78;102283.16;5012057;28;20430;-77
2024/02/19 09:48:59;;;;;;;7.90;2.60;;;;;;;9.75;55.04;102289.28;5029356;28;20041;-77
2024/02/19 09:51:29;;;;;;;;;;;;;;;9.50;55.28;102287.19;5011421;28;20084;-76
2024/02/19 09:54:10;;;;;;;7.55;2.85;;;;;;;9.76;55.34;102289.19;5004182;28;20015;-76
2024/02/19 09:56:38;;;;;;;7.80;2.90;;;;;;;9.82;55.15;102290.69;5026944;28;20033;-77
2024/02/19 09:59:06;;;;;;;7.57;3.65;;;;;;;9.84;55.10;102289.59;5026111;28;20117;-76
2024/02/19 10:01:34;;;;;;;9.35;3.40;;;;;;;9.89;55.25;102296.66;5011835;28;20049;-77
2024/02/19 10:04:02;;;;;;;9.02;3.30;;;;;;;9.91;54.95;102298.31;5015756;28;20041;-77
2024/02/19 10:06:35;;;;;;;8.27;3.80;;;;;;;9.94;55.17;102297.25;5004250;28;20057;-77
2024/02/19 10:09:06;;;;;;;8.13;3.30;;;;;;;9.96;54.87;102301.66;5029760;28;20041;-75
2024/02/19 10:11:37;;;;;;;10.07;3.80;;;;;;;9.99;54.87;102306.91;5020913;28;20052;-77
2024/02/19 10:14:05;;;;;;;8.32;3.55;;;;;;;10.01;55.14;102307.72;5014765;28;20060;-77
2024/02/19 10:16:33;;;;;;;8.20;3.17;;;;;;;10.05;55.26;102305.66;5029670;28;20120;-77
2024/02/19 10:19:05;;;;;;;6.95;3.80;;;;;;;10.09;55.09;102305.38;5012746;28;20045;-77
2024/02/19 10:21:34;;;;;;;7.13;3.00;;;;;;;10.07;54.67;102309.19;5027934;28;20084;-78
2024/02/19 10:24:02;;;;;;;8.48;3.60;;;;;;;10.11;54.74;102305.28;5011728;28;20107;-77
2024/02/19 10:26:30;;;;;;;9.15;3.75;;;;;;;10.13;54.49;102311.53;5011465;28;20037;-77
2024/02/19 10:29:00;;;;;;;11.57;3.75;;;;;;;10.15;54.47;102313.19;5012174;28;20103;-77
2024/02/19 10:31:28;;;;;;;6.80;3.50;;;;;;;10.16;54.77;102317.69;5012106;28;20053;-77
2024/02/19 10:33:56;;;;;;;9.27;3.72;;;;;;;10.17;54.78;102313.97;5011365;28;20405;-77
2024/02/19 10:36:25;;;;;;;8.70;3.85;;;;;;;10.18;54.54;102299.31;5023543;28;20107;-77
2024/02/19 10:38:53;;;;;;;6.75;3.70;;;;;;;10.21;54.62;102317.41;5012015;28;20508;-77
2024/02/19 10:41:23;;;;;;;9.23;3.67;;;;;;;10.21;54.72;102299.13;5011094;28;20045;-77
2024/02/19 10:43:51;;;;;;;7.68;4.15;;;;;;;10.22;54.34;102300.03;5005566;28;20041;-77
2024/02/19 10:46:22;;;;;;;8.93;3.88;;;;;;;10.27;54.69;102305.19;5029297;28;20517;-77
2024/02/19 10:48:52;;;;;;;11.73;4.10;;;;;;;10.26;54.36;102297.94;5027020;28;20392;-77
2024/02/19 10:51:22;;;;;;;8.77;3.80;;;;;;;10.27;54.86;102297.88;5010334;28;20128;-77
2024/02/19 10:53:59;;;;;;;9.10;3.97;;;;;;;10.30;54.81;102300.41;5018403;28;20037;-77
2024/02/19 10:56:35;;;;;;;9.82;4.50;;;;;;;10.32;54.54;102298.44;5018073;28;20050;-77
2024/02/19 10:59:04;;;;;;;8.63;4.30;;;;;;;10.31;54.70;102295.81;5003788;28;20243;-77
2024/02/19 11:01:43;;;;;;;7.53;4.20;;;;;;;10.33;53.96;102289.25;5027866;28;20034;-76
2024/02/19 11:04:19;;;;;;;9.98;4.20;;;;;;;10.33;53.99;102294.72;5018664;28;20104;-77
2024/02/19 11:06:48;;;;;;;9.68;4.28;;;;;;;10.30;54.45;102288.59;5028858;28;20049;-77
2024/02/19 11:09:17;;;;;;;7.40;4.45;;;;;;;10.33;54.28;102292.00;5009104;28;20042;-77
2024/02/19 11:11:57;;;;;;;7.97;4.43;;;;;;;10.33;54.58;102283.78;5025644;28;20047;-76
2024/02/19 11:14:28;;;;;;;10.98;4.70;;;;;;;10.33;54.63;102286.50;5010163;28;20477;-77
2024/02/19 11:16:58;;;;;;;10.25;5.13;;;;;;;10.35;54.77;102279.09;5010316;28;20057;-77
2024/02/19 11:19:27;;;;;;;8.63;4.63;;;;;;;10.36;54.36;102279.97;5019510;28;20198;-77
2024/02/19 11:22:07;;;;;;;8.13;4.57;;;;;;;10.39;54.59;102275.19;5005259;28;20056;-77
2024/02/19 11:24:36;;;;;;;7.72;4.20;;;;;;;10.36;54.95;102266.28;5023290;28;20092;-77
2024/02/19 11:27:05;;;;;;;10.23;5.20;;;;;;;10.40;54.44;102270.59;5022717;28;20521;-77
2024/02/19 11:29:33;;;;;;;8.18;4.60;;;;;;;10.39;54.54;102261.50;5026109;28;20033;-77
2024/02/19 11:32:18;;;;;;;11.82;5.57;;;;;;;10.41;54.52;102266.88;5007710;28;20509;-77
2024/02/19 11:34:49;;;;;;;8.77;4.90;;;;;;;10.42;54.50;102255.81;5023206;28;20116;-77
2024/02/19 11:37:18;;;;;;;8.65;4.85;;;;;;;10.43;54.48;102257.59;5008171;28;20054;-77
2024/02/19 11:39:46;;;;;;;8.68;4.45;;;;;;;10.44;54.41;102237.44;5008500;28;20037;-77